sensor_id;sensor_type;location;lat;lon;timestamp;P1;durP1;ratioP1;P2;durP2;ratioP2
62798;SDS011;48842;51.046;13.796;2023-05-20T00:01:11;19.80;;;16.43;;
62798;SDS011;48842;51.046;13.796;2023-05-20T00:03:36;19.00;;;15.73;;
62798;SDS011;48842;51.046;13.796;2023-05-20T00:06:02;22.17;;;17.67;;
62798;SDS011;48842;51.046;13.796;2023-05-20T00:08:27;21.53;;;17.20;;
62798;SDS011;48842;51.046;13.796;2023-05-20T00:10:52;23.03;;;17.90;;
62798;SDS011;48842;51.046;13.796;2023-05-20T00:13:18;24.03;;;18.60;;
62798;SDS011;48842;51.046;13.796;2023-05-20T00:15:43;25.70;;;19.53;;
62798;SDS011;48842;51.046;13.796;2023-05-20T00:18:08;23.63;;;18.20;;
62798;SDS011;48842;51.046;13.796;2023-05-20T00:20:33;20.57;;;16.50;;
62798;SDS011;48842;51.046;13.796;2023-05-20T00:22:59;21.30;;;17.73;;
62798;SDS011;48842;51.046;13.796;2023-05-20T00:25:24;23.60;;;16.13;;
62798;SDS011;48842;51.046;13.796;2023-05-20T00:27:49;22.60;;;17.73;;
62798;SDS011;48842;51.046;13.796;2023-05-20T00:30:14;21.60;;;17.30;;
62798;SDS011;48842;51.046;13.796;2023-05-20T00:32:40;20.63;;;17.10;;
62798;SDS011;48842;51.046;13.796;2023-05-20T00:35:05;21.67;;;17.93;;
62798;SDS011;48842;51.046;13.796;2023-05-20T00:37:31;21.00;;;17.63;;
62798;SDS011;48842;51.046;13.796;2023-05-20T00:39:56;21.87;;;18.23;;
62798;SDS011;48842;51.046;13.796;2023-05-20T00:42:22;21.70;;;17.20;;
62798;SDS011;48842;51.046;13.796;2023-05-20T00:44:48;21.17;;;18.93;;
62798;SDS011;48842;51.046;13.796;2023-05-20T00:47:17;22.17;;;18.03;;
62798;SDS011;48842;51.046;13.796;2023-05-20T00:49:44;22.90;;;17.93;;
62798;SDS011;48842;51.046;13.796;2023-05-20T00:52:10;23.20;;;17.97;;
62798;SDS011;48842;51.046;13.796;2023-05-20T00:54:35;23.80;;;18.07;;
62798;SDS011;48842;51.046;13.796;2023-05-20T00:57:01;24.27;;;18.50;;
62798;SDS011;48842;51.046;13.796;2023-05-20T00:59:29;21.33;;;18.37;;
62798;SDS011;48842;51.046;13.796;2023-05-20T01:01:54;23.03;;;17.87;;
62798;SDS011;48842;51.046;13.796;2023-05-20T01:04:20;24.57;;;19.07;;
62798;SDS011;48842;51.046;13.796;2023-05-20T01:06:45;19.83;;;17.73;;
62798;SDS011;48842;51.046;13.796;2023-05-20T01:09:12;21.90;;;17.70;;
62798;SDS011;48842;51.046;13.796;2023-05-20T01:11:38;27.20;;;18.83;;
62798;SDS011;48842;51.046;13.796;2023-05-20T01:14:11;22.30;;;19.03;;
62798;SDS011;48842;51.046;13.796;2023-05-20T01:16:40;26.10;;;19.77;;
62798;SDS011;48842;51.046;13.796;2023-05-20T01:19:10;22.63;;;18.90;;
62798;SDS011;48842;51.046;13.796;2023-05-20T01:21:45;23.70;;;19.87;;
62798;SDS011;48842;51.046;13.796;2023-05-20T01:24:12;25.40;;;19.90;;
62798;SDS011;48842;51.046;13.796;2023-05-20T01:26:37;34.50;;;21.73;;
62798;SDS011;48842;51.046;13.796;2023-05-20T01:29:02;23.20;;;19.23;;
62798;SDS011;48842;51.046;13.796;2023-05-20T01:31:29;24.53;;;18.90;;
62798;SDS011;48842;51.046;13.796;2023-05-20T01:33:57;30.30;;;20.90;;
62798;SDS011;48842;51.046;13.796;2023-05-20T01:36:23;27.30;;;21.27;;
62798;SDS011;48842;51.046;13.796;2023-05-20T01:38:51;23.70;;;18.87;;
62798;SDS011;48842;51.046;13.796;2023-05-20T01:41:24;21.43;;;18.73;;
62798;SDS011;48842;51.046;13.796;2023-05-20T01:43:52;23.70;;;19.53;;
62798;SDS011;48842;51.046;13.796;2023-05-20T01:46:19;23.17;;;20.07;;
62798;SDS011;48842;51.046;13.796;2023-05-20T01:48:45;22.43;;;19.27;;
62798;SDS011;48842;51.046;13.796;2023-05-20T01:51:10;21.93;;;18.40;;
62798;SDS011;48842;51.046;13.796;2023-05-20T01:53:35;22.43;;;18.40;;
62798;SDS011;48842;51.046;13.796;2023-05-20T01:56:00;25.13;;;17.77;;
62798;SDS011;48842;51.046;13.796;2023-05-20T01:58:26;21.67;;;17.67;;
62798;SDS011;48842;51.046;13.796;2023-05-20T02:00:51;22.57;;;18.67;;
62798;SDS011;48842;51.046;13.796;2023-05-20T02:03:16;20.60;;;18.07;;
62798;SDS011;48842;51.046;13.796;2023-05-20T02:05:42;22.83;;;18.10;;
62798;SDS011;48842;51.046;13.796;2023-05-20T02:08:07;23.67;;;18.47;;
62798;SDS011;48842;51.046;13.796;2023-05-20T02:10:33;23.53;;;18.80;;
62798;SDS011;48842;51.046;13.796;2023-05-20T02:12:58;25.20;;;19.07;;
62798;SDS011;48842;51.046;13.796;2023-05-20T02:15:24;29.60;;;19.37;;
62798;SDS011;48842;51.046;13.796;2023-05-20T02:17:49;23.33;;;18.63;;
62798;SDS011;48842;51.046;13.796;2023-05-20T02:20:14;22.13;;;19.03;;
62798;SDS011;48842;51.046;13.796;2023-05-20T02:22:40;22.30;;;17.80;;
62798;SDS011;48842;51.046;13.796;2023-05-20T02:25:05;24.37;;;18.57;;
62798;SDS011;48842;51.046;13.796;2023-05-20T02:27:32;23.60;;;18.47;;
62798;SDS011;48842;51.046;13.796;2023-05-20T02:29:57;23.53;;;19.30;;
62798;SDS011;48842;51.046;13.796;2023-05-20T02:32:22;23.53;;;19.50;;
62798;SDS011;48842;51.046;13.796;2023-05-20T02:34:51;21.50;;;17.50;;
62798;SDS011;48842;51.046;13.796;2023-05-20T02:37:18;22.43;;;19.47;;
62798;SDS011;48842;51.046;13.796;2023-05-20T02:39:43;25.97;;;21.30;;
62798;SDS011;48842;51.046;13.796;2023-05-20T02:42:08;24.97;;;19.80;;
62798;SDS011;48842;51.046;13.796;2023-05-20T02:44:33;22.47;;;19.13;;
62798;SDS011;48842;51.046;13.796;2023-05-20T02:46:59;22.70;;;18.60;;
62798;SDS011;48842;51.046;13.796;2023-05-20T02:49:24;28.73;;;21.03;;
62798;SDS011;48842;51.046;13.796;2023-05-20T02:51:49;24.40;;;19.97;;
62798;SDS011;48842;51.046;13.796;2023-05-20T02:54:14;25.40;;;19.80;;
62798;SDS011;48842;51.046;13.796;2023-05-20T02:56:40;26.20;;;20.40;;
62798;SDS011;48842;51.046;13.796;2023-05-20T02:59:05;26.87;;;20.60;;
62798;SDS011;48842;51.046;13.796;2023-05-20T03:01:31;23.43;;;19.53;;
62798;SDS011;48842;51.046;13.796;2023-05-20T03:03:59;22.20;;;18.60;;
62798;SDS011;48842;51.046;13.796;2023-05-20T03:06:24;24.87;;;20.30;;
62798;SDS011;48842;51.046;13.796;2023-05-20T03:08:50;24.90;;;20.50;;
62798;SDS011;48842;51.046;13.796;2023-05-20T03:11:15;29.67;;;21.93;;
62798;SDS011;48842;51.046;13.796;2023-05-20T03:13:40;22.77;;;19.33;;
62798;SDS011;48842;51.046;13.796;2023-05-20T03:16:06;29.60;;;20.03;;
62798;SDS011;48842;51.046;13.796;2023-05-20T03:18:31;24.50;;;20.40;;
62798;SDS011;48842;51.046;13.796;2023-05-20T03:20:57;22.97;;;20.13;;
62798;SDS011;48842;51.046;13.796;2023-05-20T03:23:22;26.53;;;20.70;;
62798;SDS011;48842;51.046;13.796;2023-05-20T03:25:47;24.37;;;20.47;;
62798;SDS011;48842;51.046;13.796;2023-05-20T03:28:12;24.87;;;20.23;;
62798;SDS011;48842;51.046;13.796;2023-05-20T03:30:38;31.27;;;23.27;;
62798;SDS011;48842;51.046;13.796;2023-05-20T03:33:03;26.57;;;19.57;;
62798;SDS011;48842;51.046;13.796;2023-05-20T03:35:29;25.87;;;21.60;;
62798;SDS011;48842;51.046;13.796;2023-05-20T03:37:55;26.70;;;19.70;;
62798;SDS011;48842;51.046;13.796;2023-05-20T03:40:20;26.63;;;21.70;;
62798;SDS011;48842;51.046;13.796;2023-05-20T03:42:45;25.23;;;20.50;;
62798;SDS011;48842;51.046;13.796;2023-05-20T03:45:10;23.63;;;19.07;;
62798;SDS011;48842;51.046;13.796;2023-05-20T03:47:36;25.37;;;20.53;;
62798;SDS011;48842;51.046;13.796;2023-05-20T03:50:01;32.60;;;21.77;;
62798;SDS011;48842;51.046;13.796;2023-05-20T03:52:26;30.37;;;21.93;;
62798;SDS011;48842;51.046;13.796;2023-05-20T03:54:52;29.43;;;22.10;;
62798;SDS011;48842;51.046;13.796;2023-05-20T03:57:17;27.40;;;21.07;;
62798;SDS011;48842;51.046;13.796;2023-05-20T03:59:43;26.97;;;21.13;;
62798;SDS011;48842;51.046;13.796;2023-05-20T04:02:09;29.40;;;23.10;;
62798;SDS011;48842;51.046;13.796;2023-05-20T04:04:34;29.90;;;23.23;;
62798;SDS011;48842;51.046;13.796;2023-05-20T04:07:00;27.07;;;22.20;;
62798;SDS011;48842;51.046;13.796;2023-05-20T04:09:25;26.37;;;21.70;;
62798;SDS011;48842;51.046;13.796;2023-05-20T04:11:51;27.87;;;21.90;;
62798;SDS011;48842;51.046;13.796;2023-05-20T04:14:16;28.13;;;21.90;;
62798;SDS011;48842;51.046;13.796;2023-05-20T04:16:42;26.97;;;21.93;;
62798;SDS011;48842;51.046;13.796;2023-05-20T04:19:07;31.97;;;21.50;;
62798;SDS011;48842;51.046;13.796;2023-05-20T04:21:32;26.47;;;20.90;;
62798;SDS011;48842;51.046;13.796;2023-05-20T04:23:58;30.97;;;22.07;;
62798;SDS011;48842;51.046;13.796;2023-05-20T04:26:23;29.13;;;22.70;;
62798;SDS011;48842;51.046;13.796;2023-05-20T04:28:48;27.03;;;22.40;;
62798;SDS011;48842;51.046;13.796;2023-05-20T04:31:14;29.53;;;20.80;;
62798;SDS011;48842;51.046;13.796;2023-05-20T04:33:39;29.90;;;22.80;;
62798;SDS011;48842;51.046;13.796;2023-05-20T04:36:05;25.20;;;21.17;;
62798;SDS011;48842;51.046;13.796;2023-05-20T04:38:31;28.70;;;21.97;;
62798;SDS011;48842;51.046;13.796;2023-05-20T04:40:57;29.93;;;22.40;;
62798;SDS011;48842;51.046;13.796;2023-05-20T04:43:24;28.47;;;20.40;;
62798;SDS011;48842;51.046;13.796;2023-05-20T04:45:50;30.63;;;22.53;;
62798;SDS011;48842;51.046;13.796;2023-05-20T04:48:17;29.40;;;21.23;;
62798;SDS011;48842;51.046;13.796;2023-05-20T04:50:42;25.57;;;21.10;;
62798;SDS011;48842;51.046;13.796;2023-05-20T04:53:07;30.37;;;22.90;;
62798;SDS011;48842;51.046;13.796;2023-05-20T04:55:33;28.47;;;20.70;;
62798;SDS011;48842;51.046;13.796;2023-05-20T04:58:01;30.13;;;21.80;;
62798;SDS011;48842;51.046;13.796;2023-05-20T05:00:26;28.83;;;22.00;;
62798;SDS011;48842;51.046;13.796;2023-05-20T05:02:51;27.50;;;20.97;;
62798;SDS011;48842;51.046;13.796;2023-05-20T05:05:16;29.73;;;21.83;;
62798;SDS011;48842;51.046;13.796;2023-05-20T05:07:42;28.93;;;22.50;;
62798;SDS011;48842;51.046;13.796;2023-05-20T05:10:07;26.40;;;21.87;;
62798;SDS011;48842;51.046;13.796;2023-05-20T05:12:32;29.37;;;22.60;;
62798;SDS011;48842;51.046;13.796;2023-05-20T05:14:58;26.50;;;21.23;;
62798;SDS011;48842;51.046;13.796;2023-05-20T05:17:23;30.93;;;22.43;;
62798;SDS011;48842;51.046;13.796;2023-05-20T05:19:49;29.13;;;21.77;;
62798;SDS011;48842;51.046;13.796;2023-05-20T05:22:14;29.37;;;23.70;;
62798;SDS011;48842;51.046;13.796;2023-05-20T05:24:39;28.63;;;22.47;;
62798;SDS011;48842;51.046;13.796;2023-05-20T05:27:05;30.17;;;22.77;;
62798;SDS011;48842;51.046;13.796;2023-05-20T05:29:30;28.40;;;22.90;;
62798;SDS011;48842;51.046;13.796;2023-05-20T05:31:55;29.30;;;22.67;;
62798;SDS011;48842;51.046;13.796;2023-05-20T05:34:20;32.37;;;24.40;;
62798;SDS011;48842;51.046;13.796;2023-05-20T05:36:46;29.87;;;22.53;;
62798;SDS011;48842;51.046;13.796;2023-05-20T05:39:11;30.70;;;22.73;;
62798;SDS011;48842;51.046;13.796;2023-05-20T05:41:36;29.10;;;23.40;;
62798;SDS011;48842;51.046;13.796;2023-05-20T05:44:03;31.03;;;24.03;;
62798;SDS011;48842;51.046;13.796;2023-05-20T05:46:28;30.47;;;24.10;;
62798;SDS011;48842;51.046;13.796;2023-05-20T05:48:54;29.70;;;24.10;;
62798;SDS011;48842;51.046;13.796;2023-05-20T05:51:19;33.80;;;24.40;;
62798;SDS011;48842;51.046;13.796;2023-05-20T05:53:44;32.53;;;25.37;;
62798;SDS011;48842;51.046;13.796;2023-05-20T05:56:09;34.50;;;23.40;;
62798;SDS011;48842;51.046;13.796;2023-05-20T05:58:35;29.00;;;24.00;;
62798;SDS011;48842;51.046;13.796;2023-05-20T06:01:00;32.70;;;24.20;;
62798;SDS011;48842;51.046;13.796;2023-05-20T06:03:26;32.80;;;25.27;;
62798;SDS011;48842;51.046;13.796;2023-05-20T06:05:51;30.97;;;23.40;;
62798;SDS011;48842;51.046;13.796;2023-05-20T06:08:16;33.33;;;25.80;;
62798;SDS011;48842;51.046;13.796;2023-05-20T06:10:45;33.73;;;25.17;;
62798;SDS011;48842;51.046;13.796;2023-05-20T06:13:14;33.70;;;25.70;;
62798;SDS011;48842;51.046;13.796;2023-05-20T06:15:39;33.43;;;26.90;;
62798;SDS011;48842;51.046;13.796;2023-05-20T06:18:05;35.50;;;27.00;;
62798;SDS011;48842;51.046;13.796;2023-05-20T06:20:30;32.67;;;24.93;;
62798;SDS011;48842;51.046;13.796;2023-05-20T06:22:55;33.23;;;24.47;;
62798;SDS011;48842;51.046;13.796;2023-05-20T06:25:20;31.83;;;25.67;;
62798;SDS011;48842;51.046;13.796;2023-05-20T06:27:46;31.20;;;25.33;;
62798;SDS011;48842;51.046;13.796;2023-05-20T06:30:12;35.33;;;25.77;;
62798;SDS011;48842;51.046;13.796;2023-05-20T06:32:37;31.03;;;24.90;;
62798;SDS011;48842;51.046;13.796;2023-05-20T06:35:03;32.87;;;24.80;;
62798;SDS011;48842;51.046;13.796;2023-05-20T06:37:28;35.63;;;25.57;;
62798;SDS011;48842;51.046;13.796;2023-05-20T06:39:54;29.27;;;24.00;;
62798;SDS011;48842;51.046;13.796;2023-05-20T06:42:19;29.13;;;25.03;;
62798;SDS011;48842;51.046;13.796;2023-05-20T06:44:45;28.77;;;24.47;;
62798;SDS011;48842;51.046;13.796;2023-05-20T06:47:12;32.90;;;25.40;;
62798;SDS011;48842;51.046;13.796;2023-05-20T06:49:38;31.07;;;24.60;;
62798;SDS011;48842;51.046;13.796;2023-05-20T06:52:04;31.87;;;24.30;;
62798;SDS011;48842;51.046;13.796;2023-05-20T06:54:29;27.37;;;23.33;;
62798;SDS011;48842;51.046;13.796;2023-05-20T06:56:55;31.57;;;24.40;;
62798;SDS011;48842;51.046;13.796;2023-05-20T06:59:20;30.47;;;24.30;;
62798;SDS011;48842;51.046;13.796;2023-05-20T07:01:45;31.33;;;23.83;;
62798;SDS011;48842;51.046;13.796;2023-05-20T07:04:11;30.17;;;25.00;;
62798;SDS011;48842;51.046;13.796;2023-05-20T07:06:36;27.57;;;23.57;;
62798;SDS011;48842;51.046;13.796;2023-05-20T07:09:01;30.73;;;25.03;;
62798;SDS011;48842;51.046;13.796;2023-05-20T07:11:26;31.40;;;25.47;;
62798;SDS011;48842;51.046;13.796;2023-05-20T07:13:51;31.43;;;24.70;;
62798;SDS011;48842;51.046;13.796;2023-05-20T07:16:17;29.40;;;23.10;;
62798;SDS011;48842;51.046;13.796;2023-05-20T07:18:42;29.87;;;23.67;;
62798;SDS011;48842;51.046;13.796;2023-05-20T07:21:08;30.73;;;22.37;;
62798;SDS011;48842;51.046;13.796;2023-05-20T07:23:33;30.93;;;23.67;;
62798;SDS011;48842;51.046;13.796;2023-05-20T07:25:59;31.07;;;24.90;;
62798;SDS011;48842;51.046;13.796;2023-05-20T07:28:24;29.30;;;23.93;;
62798;SDS011;48842;51.046;13.796;2023-05-20T07:30:50;30.43;;;24.10;;
62798;SDS011;48842;51.046;13.796;2023-05-20T07:33:17;30.80;;;26.30;;
62798;SDS011;48842;51.046;13.796;2023-05-20T07:35:43;30.23;;;23.73;;
62798;SDS011;48842;51.046;13.796;2023-05-20T07:38:09;30.40;;;24.30;;
62798;SDS011;48842;51.046;13.796;2023-05-20T07:40:36;27.13;;;23.07;;
62798;SDS011;48842;51.046;13.796;2023-05-20T07:43:02;32.23;;;22.77;;
62798;SDS011;48842;51.046;13.796;2023-05-20T07:45:28;28.13;;;22.87;;
62798;SDS011;48842;51.046;13.796;2023-05-20T07:47:53;32.80;;;24.37;;
62798;SDS011;48842;51.046;13.796;2023-05-20T07:50:18;31.80;;;23.53;;
62798;SDS011;48842;51.046;13.796;2023-05-20T07:52:43;26.73;;;23.17;;
62798;SDS011;48842;51.046;13.796;2023-05-20T07:55:09;38.43;;;27.00;;
62798;SDS011;48842;51.046;13.796;2023-05-20T07:57:34;26.73;;;22.03;;
62798;SDS011;48842;51.046;13.796;2023-05-20T07:59:59;29.17;;;23.30;;
62798;SDS011;48842;51.046;13.796;2023-05-20T08:02:24;32.23;;;23.60;;
62798;SDS011;48842;51.046;13.796;2023-05-20T08:04:50;27.57;;;23.53;;
62798;SDS011;48842;51.046;13.796;2023-05-20T08:07:15;30.50;;;22.73;;
62798;SDS011;48842;51.046;13.796;2023-05-20T08:09:40;31.60;;;23.00;;
62798;SDS011;48842;51.046;13.796;2023-05-20T08:12:06;29.50;;;23.70;;
62798;SDS011;48842;51.046;13.796;2023-05-20T08:14:31;31.57;;;25.00;;
62798;SDS011;48842;51.046;13.796;2023-05-20T08:16:56;27.13;;;22.63;;
62798;SDS011;48842;51.046;13.796;2023-05-20T08:19:21;25.80;;;21.73;;
62798;SDS011;48842;51.046;13.796;2023-05-20T08:21:47;26.87;;;21.43;;
62798;SDS011;48842;51.046;13.796;2023-05-20T08:24:12;26.83;;;21.70;;
62798;SDS011;48842;51.046;13.796;2023-05-20T08:26:37;25.93;;;22.50;;
62798;SDS011;48842;51.046;13.796;2023-05-20T08:29:03;28.97;;;22.90;;
62798;SDS011;48842;51.046;13.796;2023-05-20T08:31:28;29.73;;;23.47;;
62798;SDS011;48842;51.046;13.796;2023-05-20T08:33:53;31.77;;;22.50;;
62798;SDS011;48842;51.046;13.796;2023-05-20T08:36:18;24.93;;;21.30;;
62798;SDS011;48842;51.046;13.796;2023-05-20T08:38:44;28.10;;;22.43;;
62798;SDS011;48842;51.046;13.796;2023-05-20T08:41:09;27.40;;;21.20;;
62798;SDS011;48842;51.046;13.796;2023-05-20T08:43:34;28.00;;;21.53;;
62798;SDS011;48842;51.046;13.796;2023-05-20T08:46:01;30.77;;;24.30;;
62798;SDS011;48842;51.046;13.796;2023-05-20T08:48:29;27.93;;;23.20;;
62798;SDS011;48842;51.046;13.796;2023-05-20T08:50:56;26.97;;;21.10;;
62798;SDS011;48842;51.046;13.796;2023-05-20T08:53:22;28.27;;;23.10;;
62798;SDS011;48842;51.046;13.796;2023-05-20T08:55:51;24.90;;;19.60;;
62798;SDS011;48842;51.046;13.796;2023-05-20T08:58:20;25.93;;;20.60;;
62798;SDS011;48842;51.046;13.796;2023-05-20T09:00:46;25.77;;;21.60;;
62798;SDS011;48842;51.046;13.796;2023-05-20T09:03:11;24.60;;;20.87;;
62798;SDS011;48842;51.046;13.796;2023-05-20T09:05:37;26.50;;;21.07;;
62798;SDS011;48842;51.046;13.796;2023-05-20T09:08:06;24.43;;;19.17;;
62798;SDS011;48842;51.046;13.796;2023-05-20T09:10:32;30.00;;;20.40;;
62798;SDS011;48842;51.046;13.796;2023-05-20T09:13:01;25.33;;;19.63;;
62798;SDS011;48842;51.046;13.796;2023-05-20T09:15:28;27.63;;;20.40;;
62798;SDS011;48842;51.046;13.796;2023-05-20T09:17:54;30.10;;;20.20;;
62798;SDS011;48842;51.046;13.796;2023-05-20T09:20:20;27.80;;;20.70;;
62798;SDS011;48842;51.046;13.796;2023-05-20T09:22:49;30.77;;;20.13;;
62798;SDS011;48842;51.046;13.796;2023-05-20T09:25:17;22.80;;;19.97;;
62798;SDS011;48842;51.046;13.796;2023-05-20T09:27:44;23.87;;;18.00;;
62798;SDS011;48842;51.046;13.796;2023-05-20T09:30:09;25.00;;;20.53;;
62798;SDS011;48842;51.046;13.796;2023-05-20T09:32:36;26.67;;;20.90;;
62798;SDS011;48842;51.046;13.796;2023-05-20T09:35:02;26.00;;;21.40;;
62798;SDS011;48842;51.046;13.796;2023-05-20T09:37:28;27.27;;;21.50;;
62798;SDS011;48842;51.046;13.796;2023-05-20T09:39:55;22.10;;;19.40;;
62798;SDS011;48842;51.046;13.796;2023-05-20T09:42:27;29.33;;;20.23;;
62798;SDS011;48842;51.046;13.796;2023-05-20T09:45:08;25.67;;;21.03;;
62798;SDS011;48842;51.046;13.796;2023-05-20T09:47:34;25.77;;;20.97;;
62798;SDS011;48842;51.046;13.796;2023-05-20T09:50:06;26.53;;;21.30;;
62798;SDS011;48842;51.046;13.796;2023-05-20T09:52:33;25.87;;;19.70;;
62798;SDS011;48842;51.046;13.796;2023-05-20T09:55:01;25.50;;;21.83;;
62798;SDS011;48842;51.046;13.796;2023-05-20T09:57:30;26.47;;;20.67;;
62798;SDS011;48842;51.046;13.796;2023-05-20T09:59:58;31.10;;;21.60;;
62798;SDS011;48842;51.046;13.796;2023-05-20T10:02:23;25.00;;;20.23;;
62798;SDS011;48842;51.046;13.796;2023-05-20T10:04:48;22.43;;;18.80;;
62798;SDS011;48842;51.046;13.796;2023-05-20T10:13:04;22.33;;;19.00;;
62798;SDS011;48842;51.046;13.796;2023-05-20T10:15:59;25.33;;;20.10;;
62798;SDS011;48842;51.046;13.796;2023-05-20T10:21:29;21.77;;;19.37;;
62798;SDS011;48842;51.046;13.796;2023-05-20T10:24:04;22.87;;;20.00;;
62798;SDS011;48842;51.046;13.796;2023-05-20T10:26:39;27.97;;;19.17;;
62798;SDS011;48842;51.046;13.796;2023-05-20T10:29:18;28.80;;;21.67;;
62798;SDS011;48842;51.046;13.796;2023-05-20T10:31:44;25.87;;;19.70;;
62798;SDS011;48842;51.046;13.796;2023-05-20T10:34:13;23.37;;;19.20;;
62798;SDS011;48842;51.046;13.796;2023-05-20T10:36:43;26.70;;;19.57;;
62798;SDS011;48842;51.046;13.796;2023-05-20T10:39:15;22.13;;;19.70;;
62798;SDS011;48842;51.046;13.796;2023-05-20T10:41:41;26.27;;;19.23;;
62798;SDS011;48842;51.046;13.796;2023-05-20T10:44:06;22.90;;;16.87;;
62798;SDS011;48842;51.046;13.796;2023-05-20T10:46:32;23.80;;;19.07;;
62798;SDS011;48842;51.046;13.796;2023-05-20T10:48:58;24.07;;;19.10;;
62798;SDS011;48842;51.046;13.796;2023-05-20T10:51:25;29.53;;;19.13;;
62798;SDS011;48842;51.046;13.796;2023-05-20T10:53:53;25.07;;;19.53;;
62798;SDS011;48842;51.046;13.796;2023-05-20T10:56:20;27.40;;;20.03;;
62798;SDS011;48842;51.046;13.796;2023-05-20T10:58:46;24.30;;;19.30;;
62798;SDS011;48842;51.046;13.796;2023-05-20T11:01:12;28.23;;;20.43;;
62798;SDS011;48842;51.046;13.796;2023-05-20T11:03:39;22.90;;;17.43;;
62798;SDS011;48842;51.046;13.796;2023-05-20T11:06:14;25.20;;;18.70;;
62798;SDS011;48842;51.046;13.796;2023-05-20T11:08:42;24.17;;;18.57;;
62798;SDS011;48842;51.046;13.796;2023-05-20T11:11:08;19.53;;;16.53;;
62798;SDS011;48842;51.046;13.796;2023-05-20T11:13:34;23.70;;;19.00;;
62798;SDS011;48842;51.046;13.796;2023-05-20T11:16:00;20.17;;;17.10;;
62798;SDS011;48842;51.046;13.796;2023-05-20T11:18:26;21.03;;;17.90;;
62798;SDS011;48842;51.046;13.796;2023-05-20T11:20:56;20.77;;;17.77;;
62798;SDS011;48842;51.046;13.796;2023-05-20T11:23:22;20.53;;;17.23;;
62798;SDS011;48842;51.046;13.796;2023-05-20T11:25:51;20.17;;;17.23;;
62798;SDS011;48842;51.046;13.796;2023-05-20T11:28:17;20.70;;;18.50;;
62798;SDS011;48842;51.046;13.796;2023-05-20T11:30:43;23.63;;;17.90;;
62798;SDS011;48842;51.046;13.796;2023-05-20T11:33:13;19.43;;;17.43;;
62798;SDS011;48842;51.046;13.796;2023-05-20T11:35:44;21.80;;;17.50;;
62798;SDS011;48842;51.046;13.796;2023-05-20T11:38:15;19.07;;;16.83;;
62798;SDS011;48842;51.046;13.796;2023-05-20T11:40:53;22.40;;;17.23;;
62798;SDS011;48842;51.046;13.796;2023-05-20T11:43:19;20.53;;;17.67;;
62798;SDS011;48842;51.046;13.796;2023-05-20T11:45:46;23.00;;;17.00;;
62798;SDS011;48842;51.046;13.796;2023-05-20T11:48:16;18.27;;;16.33;;
62798;SDS011;48842;51.046;13.796;2023-05-20T11:50:44;22.23;;;17.50;;
62798;SDS011;48842;51.046;13.796;2023-05-20T11:53:13;19.33;;;17.30;;
62798;SDS011;48842;51.046;13.796;2023-05-20T11:55:44;21.40;;;16.47;;
62798;SDS011;48842;51.046;13.796;2023-05-20T11:58:26;21.23;;;17.10;;
62798;SDS011;48842;51.046;13.796;2023-05-20T12:00:54;20.87;;;17.17;;
62798;SDS011;48842;51.046;13.796;2023-05-20T12:03:19;23.80;;;15.90;;
62798;SDS011;48842;51.046;13.796;2023-05-20T12:05:45;27.50;;;16.87;;
62798;SDS011;48842;51.046;13.796;2023-05-20T12:08:14;17.83;;;15.93;;
62798;SDS011;48842;51.046;13.796;2023-05-20T12:10:40;25.27;;;17.10;;
62798;SDS011;48842;51.046;13.796;2023-05-20T12:13:06;19.20;;;16.83;;
62798;SDS011;48842;51.046;13.796;2023-05-20T12:15:37;21.90;;;16.47;;
62798;SDS011;48842;51.046;13.796;2023-05-20T12:18:02;20.17;;;15.93;;
62798;SDS011;48842;51.046;13.796;2023-05-20T12:20:28;18.70;;;16.50;;
62798;SDS011;48842;51.046;13.796;2023-05-20T12:22:54;20.17;;;15.63;;
62798;SDS011;48842;51.046;13.796;2023-05-20T12:25:20;22.43;;;17.47;;
62798;SDS011;48842;51.046;13.796;2023-05-20T12:27:46;20.73;;;15.87;;
62798;SDS011;48842;51.046;13.796;2023-05-20T12:30:13;17.33;;;15.53;;
62798;SDS011;48842;51.046;13.796;2023-05-20T12:32:40;16.50;;;14.63;;
62798;SDS011;48842;51.046;13.796;2023-05-20T12:35:07;18.43;;;16.43;;
62798;SDS011;48842;51.046;13.796;2023-05-20T12:37:33;17.73;;;15.90;;
62798;SDS011;48842;51.046;13.796;2023-05-20T12:39:58;20.80;;;16.37;;
62798;SDS011;48842;51.046;13.796;2023-05-20T12:42:23;18.37;;;14.83;;
62798;SDS011;48842;51.046;13.796;2023-05-20T12:44:49;20.00;;;15.00;;
62798;SDS011;48842;51.046;13.796;2023-05-20T12:47:15;20.50;;;15.87;;
62798;SDS011;48842;51.046;13.796;2023-05-20T12:49:40;22.20;;;14.53;;
62798;SDS011;48842;51.046;13.796;2023-05-20T12:52:05;15.03;;;13.43;;
62798;SDS011;48842;51.046;13.796;2023-05-20T12:54:31;17.90;;;15.63;;
62798;SDS011;48842;51.046;13.796;2023-05-20T12:56:57;17.87;;;15.10;;
62798;SDS011;48842;51.046;13.796;2023-05-20T12:59:22;18.20;;;16.30;;
62798;SDS011;48842;51.046;13.796;2023-05-20T13:01:48;19.00;;;15.10;;
62798;SDS011;48842;51.046;13.796;2023-05-20T13:04:13;24.83;;;14.83;;
62798;SDS011;48842;51.046;13.796;2023-05-20T13:06:39;24.13;;;15.07;;
62798;SDS011;48842;51.046;13.796;2023-05-20T13:09:04;18.30;;;16.10;;
62798;SDS011;48842;51.046;13.796;2023-05-20T13:11:30;20.00;;;16.17;;
62798;SDS011;48842;51.046;13.796;2023-05-20T13:13:55;20.53;;;16.20;;
62798;SDS011;48842;51.046;13.796;2023-05-20T13:16:21;25.37;;;15.53;;
62798;SDS011;48842;51.046;13.796;2023-05-20T13:18:47;18.30;;;15.50;;
62798;SDS011;48842;51.046;13.796;2023-05-20T13:21:12;16.40;;;14.27;;
62798;SDS011;48842;51.046;13.796;2023-05-20T13:23:37;18.53;;;14.17;;
62798;SDS011;48842;51.046;13.796;2023-05-20T13:26:03;14.13;;;12.83;;
62798;SDS011;48842;51.046;13.796;2023-05-20T13:28:28;14.97;;;13.47;;
62798;SDS011;48842;51.046;13.796;2023-05-20T13:30:53;12.37;;;11.23;;
62798;SDS011;48842;51.046;13.796;2023-05-20T13:33:19;14.80;;;11.77;;
62798;SDS011;48842;51.046;13.796;2023-05-20T13:35:44;14.73;;;10.60;;
62798;SDS011;48842;51.046;13.796;2023-05-20T13:38:09;17.53;;;11.33;;
62798;SDS011;48842;51.046;13.796;2023-05-20T13:40:34;11.50;;;10.40;;
62798;SDS011;48842;51.046;13.796;2023-05-20T13:43:00;13.17;;;11.07;;
62798;SDS011;48842;51.046;13.796;2023-05-20T13:45:25;12.53;;;10.50;;
62798;SDS011;48842;51.046;13.796;2023-05-20T13:47:51;11.17;;;10.07;;
62798;SDS011;48842;51.046;13.796;2023-05-20T13:50:16;14.60;;;11.87;;
62798;SDS011;48842;51.046;13.796;2023-05-20T13:52:42;12.90;;;11.67;;
62798;SDS011;48842;51.046;13.796;2023-05-20T13:55:07;12.20;;;11.20;;
62798;SDS011;48842;51.046;13.796;2023-05-20T13:57:32;20.67;;;11.47;;
62798;SDS011;48842;51.046;13.796;2023-05-20T13:59:58;12.73;;;11.30;;
62798;SDS011;48842;51.046;13.796;2023-05-20T14:02:23;15.23;;;12.97;;
62798;SDS011;48842;51.046;13.796;2023-05-20T14:04:48;22.03;;;13.53;;
62798;SDS011;48842;51.046;13.796;2023-05-20T14:07:13;16.00;;;12.07;;
62798;SDS011;48842;51.046;13.796;2023-05-20T14:09:42;15.30;;;12.90;;
62798;SDS011;48842;51.046;13.796;2023-05-20T14:12:07;12.70;;;11.60;;